createdAt,value
2019-01-08T00:00:22.952Z,1.80
2019-01-08T00:02:51.897Z,1.80
2019-01-08T00:05:21.639Z,1.80
2019-01-08T00:07:50.653Z,1.80
2019-01-08T00:10:19.630Z,1.80
2019-01-08T00:12:48.585Z,1.80
2019-01-08T00:15:17.985Z,1.90
2019-01-08T00:17:46.959Z,1.90
2019-01-08T00:20:16.033Z,1.90
2019-01-08T00:22:45.124Z,1.90
2019-01-08T00:25:14.077Z,1.90
2019-01-08T00:27:43.139Z,1.90
2019-01-08T00:30:12.096Z,1.90
2019-01-08T00:32:41.255Z,1.90
2019-01-08T00:35:10.275Z,1.90
2019-01-08T00:37:39.301Z,1.90
2019-01-08T00:40:08.755Z,1.90
2019-01-08T00:42:37.763Z,1.90
2019-01-08T00:45:07.678Z,1.90
2019-01-08T00:47:36.655Z,1.90
2019-01-08T00:50:06.563Z,2.00
2019-01-08T00:52:35.617Z,2.00
2019-01-08T00:55:04.781Z,2.00
2019-01-08T00:57:33.787Z,1.90
2019-01-08T01:00:02.843Z,1.90
2019-01-08T01:02:31.871Z,2.00
2019-01-08T01:05:01.007Z,2.00
2019-01-08T01:07:29.961Z,1.90
2019-01-08T01:09:58.995Z,1.90
2019-01-08T01:12:27.992Z,1.90
2019-01-08T01:14:57.105Z,1.90
2019-01-08T01:17:26.163Z,1.90
2019-01-08T01:19:55.221Z,1.80
2019-01-08T01:22:24.233Z,1.80
2019-01-08T01:24:53.244Z,1.90
2019-01-08T01:27:22.270Z,1.90
2019-01-08T01:29:51.358Z,1.90
2019-01-08T01:32:20.532Z,2.00
2019-01-08T01:34:49.533Z,2.00
2019-01-08T01:37:18.489Z,2.00
2019-01-08T01:39:47.518Z,2.00
2019-01-08T01:42:16.500Z,2.10
2019-01-08T01:44:45.420Z,2.10
2019-01-08T01:47:14.498Z,2.10
2019-01-08T01:49:43.425Z,2.10
2019-01-08T01:52:12.443Z,2.20
2019-01-08T01:54:41.379Z,2.20
2019-01-08T01:57:10.323Z,2.20
2019-01-08T01:59:39.360Z,2.20
2019-01-08T02:02:08.311Z,2.20
2019-01-08T02:04:37.301Z,2.20
2019-01-08T02:07:06.380Z,2.30
2019-01-08T02:09:35.320Z,2.30
2019-01-08T02:12:04.393Z,2.30
2019-01-08T02:14:33.408Z,2.30
2019-01-08T02:17:02.538Z,2.30
2019-01-08T02:19:31.816Z,2.30
2019-01-08T02:22:00.748Z,2.40
2019-01-08T02:24:29.761Z,2.40
2019-01-08T02:26:58.770Z,2.40
2019-01-08T02:29:28.511Z,2.40
2019-01-08T02:31:57.581Z,2.30
2019-01-08T02:34:26.531Z,2.30
2019-01-08T02:36:55.537Z,2.30
2019-01-08T02:39:24.416Z,2.40
2019-01-08T02:41:53.440Z,2.40
2019-01-08T02:44:22.509Z,2.30
2019-01-08T02:46:51.414Z,2.30
2019-01-08T02:49:20.386Z,2.30
2019-01-08T02:51:49.270Z,2.30
2019-01-08T02:54:18.216Z,2.30
2019-01-08T02:56:47.337Z,2.20
2019-01-08T02:59:16.207Z,2.20
2019-01-08T03:01:45.189Z,2.20
2019-01-08T03:04:14.095Z,2.20
2019-01-08T03:06:43.005Z,2.20
2019-01-08T03:09:11.933Z,2.20
2019-01-08T03:11:40.818Z,2.10
2019-01-08T03:14:09.772Z,2.20
2019-01-08T03:16:38.996Z,2.20
2019-01-08T03:19:09.792Z,2.20
2019-01-08T03:21:38.757Z,2.20
2019-01-08T03:24:07.663Z,2.20
2019-01-08T03:26:36.810Z,2.30
2019-01-08T03:29:05.717Z,2.30
2019-01-08T03:31:34.635Z,2.30
2019-01-08T03:34:04.523Z,2.30
2019-01-08T03:36:33.387Z,2.30
2019-01-08T03:39:02.356Z,2.30
2019-01-08T03:41:31.237Z,2.30
2019-01-08T03:44:00.121Z,2.30
2019-01-08T03:46:29.071Z,2.20
2019-01-08T03:48:57.960Z,2.20
2019-01-08T03:51:26.900Z,2.20
2019-01-08T03:53:55.815Z,2.20
2019-01-08T03:56:24.697Z,2.20
2019-01-08T03:58:53.616Z,2.20
2019-01-08T04:01:22.527Z,2.10
2019-01-08T04:03:51.484Z,2.10
2019-01-08T04:06:20.362Z,2.10
2019-01-08T04:08:49.282Z,2.10
2019-01-08T04:11:18.249Z,2.10
2019-01-08T04:13:47.198Z,2.10
2019-01-08T04:16:16.100Z,2.20
2019-01-08T04:18:44.997Z,2.20
2019-01-08T04:21:13.879Z,2.20
2019-01-08T04:23:42.821Z,2.30
2019-01-08T04:26:11.756Z,2.30
2019-01-08T04:28:40.641Z,2.30
2019-01-08T04:31:09.599Z,2.40
2019-01-08T04:33:39.039Z,2.50
2019-01-08T04:36:07.985Z,2.50
2019-01-08T04:38:36.999Z,2.50
2019-01-08T04:41:05.912Z,2.50
2019-01-08T04:43:34.837Z,2.50
2019-01-08T04:46:03.730Z,2.60
2019-01-08T04:48:32.659Z,2.60
2019-01-08T04:51:01.595Z,2.60
2019-01-08T04:53:30.571Z,2.70
2019-01-08T04:55:59.556Z,2.70
2019-01-08T04:58:28.456Z,2.70
2019-01-08T05:00:57.386Z,2.70
2019-01-08T05:03:26.312Z,2.70
2019-01-08T05:05:55.213Z,2.80
2019-01-08T05:08:24.181Z,2.80
2019-01-08T05:10:53.074Z,2.90
2019-01-08T05:13:21.979Z,2.90
2019-01-08T05:15:51.512Z,2.90
2019-01-08T05:18:20.372Z,2.90
2019-01-08T05:20:49.326Z,2.90
2019-01-08T05:23:18.332Z,3.00
2019-01-08T05:25:47.217Z,3.00
2019-01-08T05:28:16.140Z,3.00
2019-01-08T05:30:45.072Z,3.00
2019-01-08T05:33:14.031Z,3.00
2019-01-08T05:35:42.920Z,3.00
2019-01-08T05:38:11.843Z,3.00
2019-01-08T05:40:40.775Z,3.00
2019-01-08T05:43:09.670Z,2.90
2019-01-08T05:45:38.669Z,3.00
2019-01-08T05:48:07.684Z,2.90
2019-01-08T05:50:36.615Z,3.00
2019-01-08T05:53:05.537Z,3.00
2019-01-08T05:55:34.435Z,3.00
2019-01-08T05:58:03.397Z,3.10
2019-01-08T06:00:32.281Z,3.20
2019-01-08T06:03:01.580Z,3.40
2019-01-08T06:05:30.564Z,3.40
2019-01-08T06:07:59.461Z,3.50
2019-01-08T06:10:28.409Z,3.60
2019-01-08T06:12:57.346Z,3.60
2019-01-08T06:15:26.246Z,3.60
2019-01-08T06:17:55.148Z,3.60
2019-01-08T06:20:24.031Z,3.60
2019-01-08T06:22:53.540Z,3.60
2019-01-08T06:25:22.418Z,3.60
2019-01-08T06:27:51.291Z,3.60
2019-01-08T06:30:24.665Z,3.60
2019-01-08T06:32:50.964Z,3.70
2019-01-08T06:35:19.891Z,3.60
2019-01-08T06:37:49.047Z,3.60
2019-01-08T06:40:17.992Z,3.60
2019-01-08T06:42:46.997Z,3.60
2019-01-08T06:45:15.995Z,3.60
2019-01-08T06:47:44.939Z,3.60
2019-01-08T06:50:13.928Z,3.60
2019-01-08T06:52:42.959Z,3.60
2019-01-08T06:55:12.047Z,3.70
2019-01-08T06:57:41.085Z,3.60
2019-01-08T07:00:10.543Z,3.60
2019-01-08T07:02:39.510Z,3.70
2019-01-08T07:05:08.401Z,3.60
2019-01-08T07:07:37.285Z,3.60
2019-01-08T07:10:08.159Z,3.60
2019-01-08T07:12:37.051Z,3.40
2019-01-08T07:15:06.351Z,3.40
2019-01-08T07:17:35.310Z,3.30
2019-01-08T07:20:04.705Z,3.40
2019-01-08T07:22:33.618Z,3.40
2019-01-08T07:25:02.554Z,3.40
2019-01-08T07:27:31.472Z,3.40
2019-01-08T07:30:00.467Z,3.40
2019-01-08T07:32:29.598Z,3.40
2019-01-08T07:34:58.543Z,3.50
2019-01-08T07:37:27.502Z,3.40
2019-01-08T07:39:56.582Z,3.30
2019-01-08T07:42:27.004Z,3.20
2019-01-08T07:44:55.891Z,3.10
2019-01-08T07:47:24.812Z,3.10
2019-01-08T07:49:53.687Z,3.30
2019-01-08T07:52:22.555Z,3.30
2019-01-08T07:54:51.510Z,3.40
2019-01-08T07:57:20.412Z,3.50
2019-01-08T07:59:49.345Z,3.60
2019-01-08T08:02:18.453Z,3.60
2019-01-08T08:04:47.879Z,3.60
2019-01-08T08:07:17.175Z,3.70
2019-01-08T08:09:46.137Z,3.90
2019-01-08T08:12:15.078Z,3.90
2019-01-08T08:14:44.204Z,3.90
2019-01-08T08:17:13.998Z,3.90
2019-01-08T08:19:43.011Z,4.10
2019-01-08T08:22:12.047Z,4.20
2019-01-08T08:24:40.992Z,4.30
2019-01-08T08:27:10.022Z,4.40
2019-01-08T08:29:38.969Z,4.50
2019-01-08T08:32:08.219Z,4.40
2019-01-08T08:34:37.373Z,4.60
2019-01-08T08:37:06.300Z,4.40
2019-01-08T08:39:35.400Z,4.70
2019-01-08T08:42:04.389Z,4.80
2019-01-08T08:44:33.297Z,4.80
2019-01-08T08:47:02.333Z,4.70
2019-01-08T08:49:31.285Z,4.40
2019-01-08T08:52:00.289Z,4.20
2019-01-08T08:54:29.247Z,4.20
2019-01-08T08:56:58.207Z,4.40
2019-01-08T08:59:27.252Z,4.30
2019-01-08T09:01:56.159Z,4.40
2019-01-08T09:04:25.339Z,4.40
2019-01-08T09:06:54.436Z,4.30
2019-01-08T09:09:23.599Z,4.40
2019-01-08T09:11:52.547Z,4.40
2019-01-08T09:14:21.613Z,4.40
2019-01-08T09:16:50.586Z,4.40
2019-01-08T09:19:20.392Z,4.40
2019-01-08T09:21:49.406Z,4.40
2019-01-08T09:24:18.332Z,4.40
2019-01-08T09:26:47.282Z,4.40
2019-01-08T09:29:16.266Z,4.40
2019-01-08T09:31:45.242Z,4.40
2019-01-08T09:34:14.308Z,4.50
2019-01-08T09:36:43.341Z,4.50
2019-01-08T09:39:12.269Z,4.50
2019-01-08T09:41:41.290Z,4.50
2019-01-08T09:44:10.289Z,4.70
2019-01-08T09:46:39.287Z,4.80
2019-01-08T09:49:08.292Z,4.80
2019-01-08T09:51:37.273Z,4.80
2019-01-08T09:54:06.372Z,4.90
2019-01-08T09:56:35.412Z,4.90
2019-01-08T09:59:04.470Z,5.00
2019-01-08T10:01:33.538Z,5.00
2019-01-08T10:04:02.818Z,5.00
2019-01-08T10:06:31.872Z,5.00
2019-01-08T10:09:00.759Z,5.00
2019-01-08T10:11:29.728Z,5.00
2019-01-08T10:13:58.926Z,5.00
2019-01-08T10:16:27.924Z,5.00
2019-01-08T10:18:56.913Z,5.10
2019-01-08T10:21:26.328Z,5.10
2019-01-08T10:23:55.254Z,5.00
2019-01-08T10:26:24.237Z,5.00
2019-01-08T10:28:53.243Z,5.10
2019-01-08T10:31:22.252Z,5.10
2019-01-08T10:33:51.235Z,5.10
2019-01-08T10:36:20.545Z,5.10
2019-01-08T10:38:49.517Z,5.10
2019-01-08T10:41:18.503Z,5.10
2019-01-08T10:43:47.516Z,5.10
2019-01-08T10:46:16.530Z,5.10
2019-01-08T10:48:47.053Z,5.00
2019-01-08T10:51:16.137Z,5.00
2019-01-08T10:53:45.086Z,5.00
2019-01-08T10:56:14.107Z,5.00
2019-01-08T10:58:43.100Z,5.00
2019-01-08T11:01:12.146Z,5.00
2019-01-08T11:03:42.090Z,5.00
2019-01-08T11:06:11.243Z,4.90
2019-01-08T11:08:40.273Z,4.80
2019-01-08T11:11:09.290Z,4.80
2019-01-08T11:13:38.393Z,4.90
2019-01-08T11:16:07.555Z,4.90
2019-01-08T11:18:36.492Z,4.90
2019-01-08T11:21:05.613Z,4.90
2019-01-08T11:23:34.589Z,4.90
2019-01-08T11:26:03.537Z,5.00
2019-01-08T11:28:32.530Z,4.90
2019-01-08T11:31:01.505Z,4.90
2019-01-08T11:33:30.674Z,4.90
2019-01-08T11:35:59.742Z,4.90
2019-01-08T11:38:28.790Z,4.90
2019-01-08T11:40:57.837Z,4.90
2019-01-08T11:43:26.790Z,4.90
2019-01-08T11:45:55.887Z,4.90
2019-01-08T11:48:24.835Z,4.90
2019-01-08T11:50:53.917Z,4.90
2019-01-08T11:53:22.965Z,4.90
2019-01-08T11:55:52.052Z,4.90
2019-01-08T11:58:21.131Z,4.80
2019-01-08T12:00:50.120Z,4.80
2019-01-08T12:03:19.050Z,4.80
2019-01-08T12:05:48.170Z,4.70
2019-01-08T12:08:17.147Z,4.60
2019-01-08T12:10:46.401Z,4.50
2019-01-08T12:13:15.622Z,4.40
2019-01-08T12:15:44.838Z,4.30
2019-01-08T12:18:13.983Z,4.20
2019-01-08T12:20:43.027Z,4.30
2019-01-08T12:23:12.059Z,4.40
2019-01-08T12:25:41.172Z,4.40
2019-01-08T12:28:10.333Z,4.40
2019-01-08T12:30:39.401Z,4.50
2019-01-08T12:33:08.445Z,4.50
2019-01-08T12:35:37.430Z,4.60
2019-01-08T12:38:06.730Z,4.80
2019-01-08T12:40:35.744Z,4.80
2019-01-08T12:43:05.067Z,4.90
2019-01-08T12:45:34.091Z,4.80
2019-01-08T12:48:03.095Z,4.80
2019-01-08T12:50:32.383Z,4.80
2019-01-08T12:53:01.370Z,4.80
2019-01-08T12:55:30.417Z,4.80
2019-01-08T12:57:59.451Z,4.80
2019-01-08T13:00:28.559Z,4.80
2019-01-08T13:02:57.722Z,4.80
2019-01-08T13:05:26.819Z,4.80
2019-01-08T13:07:55.958Z,4.80
2019-01-08T13:10:24.964Z,4.80
2019-01-08T13:12:54.000Z,4.80
2019-01-08T13:15:23.142Z,4.90
2019-01-08T13:17:52.248Z,4.80
2019-01-08T13:20:21.983Z,4.80
2019-01-08T13:22:51.157Z,4.80
2019-01-08T13:25:20.223Z,4.70
2019-01-08T13:27:50.230Z,4.80
2019-01-08T13:30:19.162Z,4.80
2019-01-08T13:32:48.288Z,4.80
2019-01-08T13:35:17.309Z,4.80
2019-01-08T13:37:46.341Z,4.70
2019-01-08T13:40:15.413Z,4.80
2019-01-08T13:42:44.807Z,4.70
2019-01-08T13:45:13.761Z,4.80
2019-01-08T13:47:42.982Z,4.80
2019-01-08T13:50:12.048Z,4.80
2019-01-08T13:52:41.138Z,4.70
2019-01-08T13:55:10.356Z,4.70
2019-01-08T13:57:39.404Z,4.70
2019-01-08T14:00:09.406Z,4.70
2019-01-08T14:02:38.539Z,4.60
2019-01-08T14:05:07.638Z,4.60
2019-01-08T14:07:36.799Z,4.50
2019-01-08T14:10:07.246Z,4.60
2019-01-08T14:12:36.250Z,4.50
2019-01-08T14:15:05.915Z,4.50
2019-01-08T14:17:34.991Z,4.50
2019-01-08T14:20:04.004Z,4.60
2019-01-08T14:22:33.013Z,4.50
2019-01-08T14:25:01.980Z,4.60
2019-01-08T14:27:32.256Z,4.60
2019-01-08T14:30:01.298Z,4.60
2019-01-08T14:32:30.712Z,4.60
2019-01-08T14:34:59.645Z,4.50
2019-01-08T14:37:28.552Z,4.60
2019-01-08T14:39:58.426Z,4.50
2019-01-08T14:42:27.420Z,4.50
2019-01-08T14:44:56.344Z,4.50
2019-01-08T14:47:25.289Z,4.50
2019-01-08T14:49:54.216Z,4.40
2019-01-08T14:52:23.078Z,4.40
2019-01-08T14:54:52.306Z,4.50
2019-01-08T14:57:21.182Z,4.50
2019-01-08T14:59:50.151Z,4.50
2019-01-08T15:02:19.036Z,4.40
2019-01-08T15:04:47.947Z,4.50
2019-01-08T15:07:16.936Z,4.40
2019-01-08T15:09:45.875Z,4.40
2019-01-08T15:12:14.755Z,4.40
2019-01-08T15:14:43.708Z,4.40
2019-01-08T15:17:12.940Z,4.50
2019-01-08T15:19:41.989Z,4.50
2019-01-08T15:22:10.969Z,4.40
2019-01-08T15:24:39.858Z,4.40
2019-01-08T15:27:08.862Z,4.40
2019-01-08T15:29:37.872Z,4.40
2019-01-08T15:32:06.991Z,4.40
2019-01-08T15:34:35.885Z,4.40
2019-01-08T15:37:04.786Z,4.40
2019-01-08T15:39:33.815Z,4.30
2019-01-08T15:42:02.822Z,4.30
2019-01-08T15:44:31.729Z,4.30
2019-01-08T15:47:00.675Z,4.30
2019-01-08T15:49:29.658Z,4.30
2019-01-08T15:51:58.636Z,4.40
2019-01-08T15:54:27.573Z,4.30
2019-01-08T15:56:57.746Z,4.30
2019-01-08T15:59:26.709Z,4.40
2019-01-08T16:01:55.641Z,4.40
2019-01-08T16:04:24.629Z,4.50
2019-01-08T16:06:53.611Z,4.60
2019-01-08T16:09:22.504Z,4.50
2019-01-08T16:11:51.472Z,4.50
2019-01-08T16:14:20.395Z,4.50
2019-01-08T16:16:49.420Z,4.40
2019-01-08T16:19:18.485Z,4.40
2019-01-08T16:21:47.403Z,4.40
2019-01-08T16:24:17.851Z,4.40
2019-01-08T16:26:46.810Z,4.50
2019-01-08T16:29:15.924Z,4.40
2019-01-08T16:31:46.756Z,4.30
2019-01-08T16:34:16.108Z,4.30
2019-01-08T16:36:45.140Z,4.30
2019-01-08T16:39:14.165Z,4.20
2019-01-08T16:41:43.104Z,4.30
2019-01-08T16:44:13.163Z,4.20
2019-01-08T16:46:42.338Z,4.20
2019-01-08T16:49:11.272Z,4.10
2019-01-08T16:51:40.482Z,4.00
2019-01-08T16:54:09.575Z,3.90
2019-01-08T16:56:39.175Z,3.90
2019-01-08T16:59:08.273Z,4.00
2019-01-08T17:01:37.251Z,3.90
2019-01-08T17:04:06.402Z,3.90
2019-01-08T17:06:35.610Z,4.00
2019-01-08T17:09:06.176Z,4.00
2019-01-08T17:11:35.421Z,4.00
2019-01-08T17:14:04.617Z,3.90
2019-01-08T17:16:35.244Z,4.00
2019-01-08T17:19:04.314Z,4.00
2019-01-08T17:21:33.402Z,4.10
2019-01-08T17:24:02.672Z,4.20
2019-01-08T17:26:31.804Z,4.10
2019-01-08T17:29:00.874Z,4.30
2019-01-08T17:31:30.932Z,4.20
2019-01-08T17:34:00.444Z,4.10
2019-01-08T17:36:29.669Z,4.20
2019-01-08T17:39:00.196Z,4.20
2019-01-08T17:41:29.346Z,4.20
2019-01-08T17:43:58.621Z,4.10
2019-01-08T17:46:27.651Z,4.10
2019-01-08T17:48:56.705Z,4.10
2019-01-08T17:51:25.926Z,4.00
2019-01-08T17:53:55.271Z,3.90
2019-01-08T17:56:24.431Z,3.90
2019-01-08T17:58:56.717Z,3.90
2019-01-08T18:01:25.918Z,3.90
2019-01-08T18:03:55.144Z,4.10
2019-01-08T18:06:24.514Z,4.10
2019-01-08T18:08:53.904Z,4.10
2019-01-08T18:11:23.032Z,4.20
2019-01-08T18:13:52.434Z,4.10
2019-01-08T18:16:21.743Z,4.20
2019-01-08T18:18:50.969Z,4.20
2019-01-08T18:21:20.265Z,4.20
2019-01-08T18:23:49.686Z,4.30
2019-01-08T18:26:18.806Z,4.20
2019-01-08T18:28:48.117Z,4.20
2019-01-08T18:31:17.404Z,4.10
2019-01-08T18:33:51.365Z,4.00
2019-01-08T18:36:17.805Z,4.00
2019-01-08T18:38:47.026Z,3.90
2019-01-08T18:41:16.123Z,3.90
2019-01-08T18:43:45.313Z,3.90
2019-01-08T18:46:15.894Z,4.00
2019-01-08T18:48:44.992Z,3.90
2019-01-08T18:51:14.253Z,3.90
2019-01-08T18:53:43.479Z,3.80
2019-01-08T18:56:12.645Z,3.70
2019-01-08T18:58:41.976Z,3.70
2019-01-08T19:01:11.246Z,3.70
2019-01-08T19:03:40.509Z,3.70
2019-01-08T19:06:09.966Z,3.60
2019-01-08T19:09:14.775Z,3.70
2019-01-08T19:11:43.956Z,3.60
2019-01-08T19:14:13.466Z,3.60
2019-01-08T19:16:43.096Z,3.60
2019-01-08T19:19:12.172Z,3.50
2019-01-08T19:21:41.393Z,3.50
2019-01-08T19:24:10.667Z,3.60
2019-01-08T19:26:39.687Z,3.60
2019-01-08T19:29:08.782Z,3.60
2019-01-08T19:31:38.022Z,3.60
2019-01-08T19:34:09.365Z,3.70
2019-01-08T19:36:37.961Z,3.70
2019-01-08T19:39:07.963Z,3.70
2019-01-08T19:41:37.296Z,3.70
2019-01-08T19:44:06.587Z,3.70
2019-01-08T19:46:35.651Z,3.70
2019-01-08T19:49:05.151Z,3.70
2019-01-08T19:51:34.843Z,3.60
2019-01-08T19:54:04.087Z,3.60
2019-01-08T19:56:33.146Z,3.70
2019-01-08T19:59:04.914Z,3.70
2019-01-08T20:01:34.146Z,3.60
2019-01-08T20:04:03.670Z,3.60
2019-01-08T20:06:32.978Z,3.60
2019-01-08T20:09:02.142Z,3.80
2019-01-08T20:11:31.465Z,3.70
2019-01-08T20:14:01.265Z,3.80
2019-01-08T20:16:36.462Z,3.80
2019-01-08T20:19:05.789Z,3.80
2019-01-08T20:21:34.997Z,3.70
2019-01-08T20:24:06.414Z,3.70
2019-01-08T20:26:35.717Z,3.80
2019-01-08T20:29:04.956Z,3.70
2019-01-08T20:31:34.182Z,3.70
2019-01-08T20:34:03.645Z,3.70
2019-01-08T20:36:32.925Z,3.70
2019-01-08T20:39:02.082Z,3.60
2019-01-08T20:41:31.325Z,3.60
2019-01-08T20:44:00.428Z,3.60
2019-01-08T20:46:29.724Z,3.60
2019-01-08T20:48:58.998Z,3.60
2019-01-08T20:51:28.255Z,3.50
2019-01-08T20:53:57.422Z,3.50
2019-01-08T20:56:26.714Z,3.50
2019-01-08T20:58:55.812Z,3.40
2019-01-08T21:01:25.031Z,3.40
2019-01-08T21:03:54.140Z,3.40
2019-01-08T21:06:23.638Z,3.40
2019-01-08T21:08:52.854Z,3.40
2019-01-08T21:11:22.001Z,3.40
2019-01-08T21:13:52.406Z,3.30
2019-01-08T21:16:21.568Z,3.30
2019-01-08T21:18:50.730Z,3.20
2019-01-08T21:21:19.886Z,3.20
2019-01-08T21:23:48.951Z,3.20
2019-01-08T21:26:18.141Z,3.20
2019-01-08T21:28:47.243Z,3.10
2019-01-08T21:31:16.401Z,3.10
2019-01-08T21:33:46.080Z,3.10
2019-01-08T21:36:15.093Z,3.10
2019-01-08T21:38:44.193Z,3.10
2019-01-08T21:41:13.817Z,3.00
2019-01-08T21:43:42.917Z,3.00
2019-01-08T21:46:12.307Z,3.00
2019-01-08T21:48:41.310Z,3.00
2019-01-08T21:51:10.342Z,3.00
2019-01-08T21:53:39.334Z,2.90
2019-01-08T21:56:08.259Z,2.90
2019-01-08T21:58:37.245Z,2.80
2019-01-08T22:01:06.135Z,2.90
2019-01-08T22:03:35.207Z,3.00
2019-01-08T22:06:04.168Z,2.90
2019-01-08T22:08:33.200Z,3.00
2019-01-08T22:11:02.144Z,3.00
2019-01-08T22:13:31.133Z,3.10
2019-01-08T22:16:00.082Z,3.10
2019-01-08T22:18:29.129Z,3.10
2019-01-08T22:20:58.033Z,3.20
2019-01-08T22:23:26.991Z,3.20
2019-01-08T22:25:55.876Z,3.20
2019-01-08T22:28:24.825Z,3.20
2019-01-08T22:30:53.702Z,3.10
2019-01-08T22:33:22.594Z,3.00
2019-01-08T22:35:52.911Z,3.00
2019-01-08T22:38:21.977Z,3.00
2019-01-08T22:40:50.959Z,3.00
2019-01-08T22:43:20.212Z,3.00
2019-01-08T22:45:49.320Z,3.00
2019-01-08T22:48:18.319Z,3.00
2019-01-08T22:50:47.207Z,3.10
2019-01-08T22:53:16.275Z,3.10
2019-01-08T22:55:45.364Z,3.20
2019-01-08T22:58:14.355Z,3.20
2019-01-08T23:00:51.115Z,3.20
2019-01-08T23:03:20.200Z,3.30
2019-01-08T23:05:49.151Z,3.30
2019-01-08T23:08:18.074Z,3.20
2019-01-08T23:10:46.965Z,3.20
2019-01-08T23:13:16.420Z,3.10
2019-01-08T23:15:45.485Z,3.10
2019-01-08T23:18:14.469Z,3.00
2019-01-08T23:20:43.565Z,2.90
2019-01-08T23:23:12.624Z,2.80
2019-01-08T23:25:41.524Z,2.70
2019-01-08T23:28:10.410Z,2.70
2019-01-08T23:30:39.422Z,2.80
2019-01-08T23:33:08.378Z,2.70
2019-01-08T23:35:37.378Z,2.90
2019-01-08T23:38:06.434Z,2.90
2019-01-08T23:40:35.480Z,2.80
2019-01-08T23:43:04.656Z,2.90
2019-01-08T23:45:33.635Z,2.90
2019-01-08T23:48:02.528Z,2.80
2019-01-08T23:50:31.477Z,2.80
2019-01-08T23:53:10.453Z,2.90
2019-01-08T23:55:45.386Z,3.00
2019-01-08T23:58:14.412Z,2.90
